Time;durP1;ratioP1;P1;durP2;ratioP2;P2;SDS_P1;SDS_P2;PMS_P1;PMS_P2;Temp;Humidity;BMP_temperature;BMP_pressure;BME280_temperature;BME280_humidity;BME280_pressure;Samples;Min_cycle;Max_cycle;Signal;HPM_P1;HPM_P2
2023/04/30 00:02:03;;;;;;;24.92;19.20;;;;;;;;;;5004136;28;20060;-74
2023/04/30 00:04:29;;;;;;;21.17;16.50;;;;;;;;;;5010247;28;20042;-74
2023/04/30 00:06:54;;;;;;;20.10;15.23;;;;;;;;;;5011509;28;20340;-73
2023/04/30 00:09:19;;;;;;;18.48;13.13;;;;;;;;;;5011008;28;20136;-74
2023/04/30 00:11:45;;;;;;;14.27;12.35;;;;;;;;;;5013472;28;20364;-74
2023/04/30 00:14:10;;;;;;;17.92;12.75;;;;;;;;;;5008603;28;20128;-76
2023/04/30 00:16:36;;;;;;;16.30;12.40;;;;;;;;;;5007015;28;20466;-74
2023/04/30 00:19:01;;;;;;;16.80;13.02;;;;;;;;;;5003918;28;21510;-73
2023/04/30 00:21:26;;;;;;;19.38;15.45;;;;;;;;;;5000605;28;20415;-74
2023/04/30 00:23:52;;;;;;;31.27;22.70;;;;;;;;;;5011934;28;20467;-72
2023/04/30 00:26:17;;;;;;;35.97;24.55;;;;;;;;;;5013447;28;20025;-76
2023/04/30 00:28:42;;;;;;;33.58;23.90;;;;;;;;;;5012627;28;20059;-73
2023/04/30 00:31:08;;;;;;;28.67;21.73;;;;;;;;;;5010513;28;20026;-73
2023/04/30 00:33:33;;;;;;;20.45;14.40;;;;;;;;;;5008525;28;20043;-74
2023/04/30 00:35:59;;;;;;;14.68;12.13;;;;;;;;;;5011606;28;20148;-73
2023/04/30 00:38:25;;;;;;;13.32;11.75;;;;;;;;;;5002259;28;20557;-72
2023/04/30 00:40:51;;;;;;;16.63;12.98;;;;;;;;;;5012423;28;20359;-73
2023/04/30 00:43:16;;;;;;;15.70;13.07;;;;;;;;;;5010364;28;20049;-74
2023/04/30 00:45:41;;;;;;;20.23;14.10;;;;;;;;;;5007426;28;20070;-74
2023/04/30 00:48:07;;;;;;;22.92;16.80;;;;;;;;;;5000349;28;20104;-73
2023/04/30 00:50:34;;;;;;;21.75;18.98;;;;;;;;;;5010930;28;21110;-75
2023/04/30 00:53:00;;;;;;;23.45;18.55;;;;;;;;;;4998487;28;20044;-74
2023/04/30 00:55:25;;;;;;;25.38;18.05;;;;;;;;;;5011173;28;20021;-72
2023/04/30 00:57:51;;;;;;;24.23;19.98;;;;;;;;;;5009005;28;20034;-73
2023/04/30 01:00:16;;;;;;;24.38;19.73;;;;;;;;;;5028176;28;20080;-73
2023/04/30 01:02:42;;;;;;;23.48;18.02;;;;;;;;;;5000274;28;20432;-73
2023/04/30 01:05:08;;;;;;;20.20;17.75;;;;;;;;;;5009791;28;20268;-73
2023/04/30 01:07:34;;;;;;;22.55;17.58;;;;;;;;;;5012228;28;20038;-76
2023/04/30 01:09:59;;;;;;;19.52;16.63;;;;;;;;;;5010129;28;20496;-73
2023/04/30 01:12:36;;;;;;;20.35;17.08;;;;;;;;;;5012005;28;20046;-72
2023/04/30 01:15:10;;;;;;;19.80;16.45;;;;;;;;;;5008910;28;20033;-72
2023/04/30 01:17:47;;;;;;;19.85;15.40;;;;;;;;;;5001953;28;23439;-74
2023/04/30 01:20:12;;;;;;;17.77;14.35;;;;;;;;;;5009318;28;20070;-76
2023/04/30 01:22:37;;;;;;;17.65;13.70;;;;;;;;;;5001201;28;20041;-73
2023/04/30 01:25:14;;;;;;;16.17;14.25;;;;;;;;;;5008863;28;20033;-73
2023/04/30 01:27:57;;;;;;;17.25;13.77;;;;;;;;;;4998967;28;20032;-76
2023/04/30 01:30:24;;;;;;;18.60;14.68;;;;;;;;;;5008633;28;20038;-72
2023/04/30 01:32:49;;;;;;;18.40;14.90;;;;;;;;;;5010753;28;20066;-73
2023/04/30 01:35:15;;;;;;;18.98;15.60;;;;;;;;;;5010536;28;20033;-73
2023/04/30 01:37:43;;;;;;;18.55;16.05;;;;;;;;;;5012883;28;20030;-75
2023/04/30 01:40:08;;;;;;;20.88;17.58;;;;;;;;;;5010923;28;20037;-71
2023/04/30 01:42:49;;;;;;;16.48;14.68;;;;;;;;;;5010641;28;20033;-72
2023/04/30 01:45:23;;;;;;;19.27;15.73;;;;;;;;;;5009024;28;20049;-73
2023/04/30 01:47:55;;;;;;;27.90;20.63;;;;;;;;;;5000297;28;20029;-73
2023/04/30 01:50:35;;;;;;;33.03;25.65;;;;;;;;;;5011070;28;20449;-75
2023/04/30 01:53:02;;;;;;;40.85;31.73;;;;;;;;;;5011455;28;20029;-73
2023/04/30 01:55:35;;;;;;;32.63;25.65;;;;;;;;;;5010025;28;20118;-73
2023/04/30 01:58:02;;;;;;;33.35;23.33;;;;;;;;;;5010109;28;20026;-73
2023/04/30 02:00:31;;;;;;;22.77;19.10;;;;;;;;;;5010578;28;20526;-73
2023/04/30 02:02:57;;;;;;;35.72;25.73;;;;;;;;;;5010592;28;20033;-73
2023/04/30 02:05:22;;;;;;;34.05;25.48;;;;;;;;;;5012954;28;20022;-73
2023/04/30 02:07:48;;;;;;;31.80;22.63;;;;;;;;;;5005119;28;20026;-73
2023/04/30 02:10:15;;;;;;;25.05;19.33;;;;;;;;;;5015117;28;20065;-72
2023/04/30 02:12:40;;;;;;;21.80;16.67;;;;;;;;;;5014001;28;20124;-72
2023/04/30 02:15:06;;;;;;;13.38;11.77;;;;;;;;;;5013973;28;20404;-74
2023/04/30 02:17:32;;;;;;;15.25;12.40;;;;;;;;;;5011236;28;20025;-73
2023/04/30 02:19:57;;;;;;;14.52;11.45;;;;;;;;;;5013688;28;20040;-73
2023/04/30 02:22:23;;;;;;;14.07;12.15;;;;;;;;;;5014008;28;20034;-73
2023/04/30 02:24:48;;;;;;;15.63;13.90;;;;;;;;;;5013696;28;20718;-72
2023/04/30 02:27:14;;;;;;;15.77;13.30;;;;;;;;;;5014289;28;20309;-73
2023/04/30 02:29:39;;;;;;;15.88;14.18;;;;;;;;;;5002905;28;20376;-72
2023/04/30 02:32:05;;;;;;;16.60;14.45;;;;;;;;;;5009605;28;20037;-72
2023/04/30 02:34:30;;;;;;;17.60;14.65;;;;;;;;;;5013869;28;20045;-73
2023/04/30 02:36:55;;;;;;;17.92;14.15;;;;;;;;;;5011982;28;20037;-73
2023/04/30 02:39:21;;;;;;;21.45;17.13;;;;;;;;;;5013442;28;20032;-75
2023/04/30 02:41:46;;;;;;;21.52;17.45;;;;;;;;;;5011500;28;20032;-74
2023/04/30 02:44:11;;;;;;;21.00;17.00;;;;;;;;;;5013485;28;20029;-73
2023/04/30 02:46:37;;;;;;;19.38;15.98;;;;;;;;;;5011517;28;20036;-73
2023/04/30 02:49:02;;;;;;;19.42;14.45;;;;;;;;;;5010689;28;20394;-72
2023/04/30 02:51:27;;;;;;;20.27;15.02;;;;;;;;;;5011679;28;20038;-72
2023/04/30 02:53:53;;;;;;;13.57;11.45;;;;;;;;;;5013354;28;20083;-72
2023/04/30 02:56:18;;;;;;;19.13;11.50;;;;;;;;;;5011422;28;20445;-74
2023/04/30 02:58:44;;;;;;;17.83;12.50;;;;;;;;;;5011991;28;20056;-75
2023/04/30 03:01:09;;;;;;;16.38;12.38;;;;;;;;;;5012794;28;20415;-71
2023/04/30 03:03:35;;;;;;;19.02;15.30;;;;;;;;;;5013175;28;20038;-72
2023/04/30 03:06:00;;;;;;;19.00;15.73;;;;;;;;;;5014304;28;20109;-73
2023/04/30 03:08:25;;;;;;;28.33;18.80;;;;;;;;;;5012882;28;20135;-75
2023/04/30 03:10:51;;;;;;;29.52;20.90;;;;;;;;;;5011968;28;20038;-72
2023/04/30 03:13:16;;;;;;;39.45;23.15;;;;;;;;;;5013163;28;20022;-71
2023/04/30 03:15:42;;;;;;;31.65;23.52;;;;;;;;;;5011231;28;20111;-72
2023/04/30 03:18:07;;;;;;;27.58;19.55;;;;;;;;;;5010896;28;20121;-72
2023/04/30 03:20:32;;;;;;;27.38;21.15;;;;;;;;;;5012351;28;20040;-72
2023/04/30 03:22:58;;;;;;;23.70;17.60;;;;;;;;;;5010766;28;20124;-75
2023/04/30 03:25:23;;;;;;;19.17;15.45;;;;;;;;;;5012037;28;20112;-72
2023/04/30 03:27:49;;;;;;;18.08;13.38;;;;;;;;;;5012958;28;20029;-73
2023/04/30 03:30:14;;;;;;;13.57;11.07;;;;;;;;;;5011558;28;20341;-74
2023/04/30 03:32:39;;;;;;;11.68;10.20;;;;;;;;;;5009597;28;20029;-72
2023/04/30 03:35:05;;;;;;;11.93;9.65;;;;;;;;;;5011676;28;20157;-72
2023/04/30 03:37:30;;;;;;;12.40;9.95;;;;;;;;;;5011836;28;20167;-71
2023/04/30 03:39:56;;;;;;;14.23;10.75;;;;;;;;;;5011080;28;20441;-72
2023/04/30 03:42:21;;;;;;;16.95;13.95;;;;;;;;;;5013393;28;20097;-71
2023/04/30 03:44:47;;;;;;;19.20;15.65;;;;;;;;;;5011115;28;20029;-73
2023/04/30 03:47:12;;;;;;;19.27;14.68;;;;;;;;;;5008002;28;20034;-74
2023/04/30 03:49:37;;;;;;;25.13;16.70;;;;;;;;;;5007916;28;20406;-73
2023/04/30 03:52:04;;;;;;;21.83;15.48;;;;;;;;;;5012630;28;20029;-78
2023/04/30 03:54:29;;;;;;;18.08;13.48;;;;;;;;;;5005582;28;20026;-75
2023/04/30 03:56:55;;;;;;;17.23;14.00;;;;;;;;;;5009396;28;20048;-74
2023/04/30 03:59:20;;;;;;;13.32;11.05;;;;;;;;;;5012201;28;20025;-74
2023/04/30 04:01:45;;;;;;;12.48;11.10;;;;;;;;;;5008081;28;20348;-76
2023/04/30 04:04:11;;;;;;;12.82;11.50;;;;;;;;;;5003529;28;20025;-76
2023/04/30 04:06:36;;;;;;;12.80;11.18;;;;;;;;;;5011270;28;20021;-77
2023/04/30 04:09:03;;;;;;;13.20;11.35;;;;;;;;;;5012928;28;20033;-79
2023/04/30 04:11:28;;;;;;;29.85;25.95;;;;;;;;;;5014165;28;20044;-75
2023/04/30 04:13:54;;;;;;;13.00;11.70;;;;;;;;;;5010000;28;20429;-72
2023/04/30 04:16:19;;;;;;;12.88;10.60;;;;;;;;;;5009461;28;20357;-73
2023/04/30 04:18:45;;;;;;;13.25;10.80;;;;;;;;;;5009369;28;20133;-73
2023/04/30 04:21:10;;;;;;;13.80;10.60;;;;;;;;;;5010021;28;20030;-73
2023/04/30 04:23:36;;;;;;;13.88;12.10;;;;;;;;;;5012889;28;20045;-76
2023/04/30 04:26:02;;;;;;;14.57;13.07;;;;;;;;;;5012603;28;20030;-73
2023/04/30 04:28:27;;;;;;;16.05;13.57;;;;;;;;;;5008029;28;20050;-74
2023/04/30 04:30:52;;;;;;;16.95;13.98;;;;;;;;;;5010940;28;20029;-72
2023/04/30 04:33:18;;;;;;;13.77;12.25;;;;;;;;;;5008756;28;20033;-71
2023/04/30 04:35:43;;;;;;;14.50;13.00;;;;;;;;;;5006782;28;20025;-72
2023/04/30 04:38:08;;;;;;;21.23;16.90;;;;;;;;;;5010576;28;20121;-71
2023/04/30 04:40:34;;;;;;;22.63;18.15;;;;;;;;;;5011500;28;20060;-72
2023/04/30 04:42:59;;;;;;;26.88;21.70;;;;;;;;;;5009919;28;20127;-71
2023/04/30 04:45:25;;;;;;;26.92;22.00;;;;;;;;;;5013783;28;20017;-73
2023/04/30 04:47:51;;;;;;;19.48;17.25;;;;;;;;;;5013330;28;20025;-72
2023/04/30 04:50:16;;;;;;;21.73;16.40;;;;;;;;;;5011031;28;20026;-74
2023/04/30 04:52:42;;;;;;;16.30;14.32;;;;;;;;;;5009340;28;20036;-74
2023/04/30 04:55:08;;;;;;;16.98;12.95;;;;;;;;;;5009849;28;20367;-75
2023/04/30 04:57:33;;;;;;;17.23;13.80;;;;;;;;;;5012529;28;20428;-74
2023/04/30 04:59:58;;;;;;;45.13;30.23;;;;;;;;;;4997132;28;20116;-73
2023/04/30 05:02:24;;;;;;;27.92;23.13;;;;;;;;;;4997940;28;20048;-72
2023/04/30 05:04:49;;;;;;;26.65;22.80;;;;;;;;;;4992266;28;20034;-72
2023/04/30 05:07:16;;;;;;;24.58;19.90;;;;;;;;;;5001436;28;20048;-76
2023/04/30 05:09:41;;;;;;;26.17;18.67;;;;;;;;;;5010969;28;20030;-72
2023/04/30 05:12:07;;;;;;;41.60;32.15;;;;;;;;;;5010536;28;20033;-73
2023/04/30 05:14:32;;;;;;;35.10;28.20;;;;;;;;;;5009631;28;20038;-72
2023/04/30 05:16:57;;;;;;;25.25;21.02;;;;;;;;;;5007161;28;20026;-72
2023/04/30 05:19:23;;;;;;;27.75;21.25;;;;;;;;;;5006204;28;20086;-72
2023/04/30 05:21:48;;;;;;;24.00;19.23;;;;;;;;;;4999428;28;20108;-72
2023/04/30 05:24:13;;;;;;;29.40;24.00;;;;;;;;;;5009832;28;20033;-72
2023/04/30 05:26:39;;;;;;;25.17;21.10;;;;;;;;;;5009508;28;20017;-73
2023/04/30 05:29:04;;;;;;;23.10;20.65;;;;;;;;;;4995521;28;20319;-73
2023/04/30 05:31:31;;;;;;;20.83;18.77;;;;;;;;;;4998990;28;20051;-73
2023/04/30 05:33:56;;;;;;;18.52;16.73;;;;;;;;;;4998017;28;20026;-71
2023/04/30 05:36:21;;;;;;;25.33;21.88;;;;;;;;;;5005672;28;20033;-72
2023/04/30 05:38:47;;;;;;;19.88;17.67;;;;;;;;;;5006207;28;20216;-72
2023/04/30 05:41:12;;;;;;;21.67;19.42;;;;;;;;;;5014493;28;20052;-73
2023/04/30 05:43:37;;;;;;;21.85;19.13;;;;;;;;;;5003705;28;20045;-72
2023/04/30 05:46:03;;;;;;;30.90;26.75;;;;;;;;;;5002093;28;20040;-73
2023/04/30 05:48:29;;;;;;;28.15;22.63;;;;;;;;;;5010374;28;20061;-72
2023/04/30 05:50:54;;;;;;;25.73;21.83;;;;;;;;;;5016559;28;20037;-74
2023/04/30 05:53:19;;;;;;;25.58;21.65;;;;;;;;;;5011972;28;20913;-71
2023/04/30 05:55:45;;;;;;;23.00;19.73;;;;;;;;;;5014069;28;20461;-71
2023/04/30 05:58:10;;;;;;;13.10;11.70;;;;;;;;;;5012953;28;20357;-71
2023/04/30 06:00:36;;;;;;;15.23;12.82;;;;;;;;;;5012147;28;20032;-71
2023/04/30 06:03:02;;;;;;;17.33;13.52;;;;;;;;;;5005086;28;20029;-71
2023/04/30 06:05:27;;;;;;;19.00;15.50;;;;;;;;;;5011677;28;20096;-73
2023/04/30 06:07:53;;;;;;;23.60;16.23;;;;;;;;;;5012834;28;20568;-74
2023/04/30 06:10:19;;;;;;;15.00;13.40;;;;;;;;;;5012757;28;20025;-75
2023/04/30 06:12:45;;;;;;;14.48;11.15;;;;;;;;;;5006768;28;20034;-74
2023/04/30 06:15:10;;;;;;;10.18;9.07;;;;;;;;;;5002753;28;20286;-71
2023/04/30 06:17:36;;;;;;;12.57;8.27;;;;;;;;;;5011439;28;20025;-72
2023/04/30 06:20:05;;;;;;;10.60;8.50;;;;;;;;;;5012068;28;20025;-72
2023/04/30 06:22:30;;;;;;;;;;;;;;;;;;5010095;28;20041;-71
2023/04/30 06:24:56;;;;;;;11.00;9.70;;;;;;;;;;5012661;28;19916;-72
2023/04/30 06:27:22;;;;;;;10.65;8.15;;;;;;;;;;5014280;28;20040;-75
2023/04/30 06:29:47;;;;;;;13.73;11.02;;;;;;;;;;5012376;28;20054;-73
2023/04/30 06:32:13;;;;;;;11.65;10.43;;;;;;;;;;5011861;28;20037;-75
2023/04/30 06:34:38;;;;;;;11.75;10.00;;;;;;;;;;5013800;28;20033;-74
2023/04/30 06:37:03;;;;;;;22.05;12.65;;;;;;;;;;5014557;28;20034;-75
2023/04/30 06:39:29;;;;;;;25.85;22.70;;;;;;;;;;5006463;28;20029;-74
2023/04/30 06:41:55;;;;;;;22.73;20.02;;;;;;;;;;5001322;28;20029;-73
2023/04/30 06:44:20;;;;;;;19.38;16.75;;;;;;;;;;5011021;28;20036;-73
2023/04/30 06:46:45;;;;;;;21.60;17.27;;;;;;;;;;5012948;28;20026;-74
2023/04/30 06:49:11;;;;;;;22.55;14.65;;;;;;;;;;5008823;28;20030;-73
2023/04/30 06:51:36;;;;;;;20.33;17.80;;;;;;;;;;5005119;28;20021;-74
2023/04/30 06:54:01;;;;;;;24.67;17.85;;;;;;;;;;5010398;28;22686;-72
2023/04/30 06:56:27;;;;;;;17.88;14.35;;;;;;;;;;5013418;28;20037;-72
2023/04/30 06:58:52;;;;;;;25.63;18.17;;;;;;;;;;5013382;28;20223;-75
2023/04/30 07:01:17;;;;;;;17.70;14.60;;;;;;;;;;5012505;28;20220;-73
2023/04/30 07:03:43;;;;;;;16.90;13.18;;;;;;;;;;5013029;28;20130;-72
2023/04/30 07:06:08;;;;;;;18.48;14.88;;;;;;;;;;5012968;28;20520;-72
2023/04/30 07:08:33;;;;;;;20.05;16.77;;;;;;;;;;5011964;28;22208;-72
2023/04/30 07:10:59;;;;;;;13.25;11.02;;;;;;;;;;5002505;28;20033;-71
2023/04/30 07:13:25;;;;;;;11.85;9.40;;;;;;;;;;5010265;28;20094;-70
2023/04/30 07:15:50;;;;;;;15.93;14.23;;;;;;;;;;5013125;28;20459;-70
2023/04/30 07:18:16;;;;;;;19.52;16.40;;;;;;;;;;5010144;28;20029;-70
2023/04/30 07:20:41;;;;;;;15.68;13.40;;;;;;;;;;5012399;28;20045;-72
2023/04/30 07:23:06;;;;;;;16.30;13.23;;;;;;;;;;5013538;28;20026;-69
2023/04/30 07:25:32;;;;;;;14.23;9.95;;;;;;;;;;5014338;28;20408;-73
2023/04/30 07:27:57;;;;;;;14.52;10.05;;;;;;;;;;5012021;28;20043;-69
2023/04/30 07:30:22;;;;;;;31.50;21.52;;;;;;;;;;5013757;28;20072;-71
2023/04/30 07:32:48;;;;;;;15.13;12.05;;;;;;;;;;5010864;28;20112;-69
2023/04/30 07:35:14;;;;;;;33.88;27.88;;;;;;;;;;5008541;28;20460;-72
2023/04/30 07:37:40;;;;;;;23.90;19.73;;;;;;;;;;5013947;28;20069;-69
2023/04/30 07:40:08;;;;;;;15.95;12.90;;;;;;;;;;5012314;28;20414;-69
2023/04/30 07:42:33;;;;;;;15.70;12.52;;;;;;;;;;5009695;28;20038;-70
2023/04/30 07:44:59;;;;;;;12.57;10.98;;;;;;;;;;5001171;28;20071;-69
2023/04/30 07:47:25;;;;;;;10.68;9.18;;;;;;;;;;4999590;28;20061;-69
2023/04/30 07:49:50;;;;;;;13.75;8.25;;;;;;;;;;5009258;28;20444;-73
2023/04/30 07:52:16;;;;;;;16.38;10.90;;;;;;;;;;5001737;28;20030;-72
2023/04/30 07:54:41;;;;;;;12.38;10.40;;;;;;;;;;4997219;28;20030;-72
2023/04/30 07:57:06;;;;;;;23.02;20.00;;;;;;;;;;4997872;28;20025;-71
2023/04/30 07:59:32;;;;;;;92.43;61.50;;;;;;;;;;4996568;28;20026;-71
2023/04/30 08:01:57;;;;;;;32.40;23.75;;;;;;;;;;5002787;28;20029;-72
2023/04/30 08:04:23;;;;;;;12.82;11.02;;;;;;;;;;5001055;28;20033;-73
2023/04/30 08:06:48;;;;;;;22.95;20.55;;;;;;;;;;5008420;28;20037;-70
2023/04/30 08:09:14;;;;;;;10.60;9.02;;;;;;;;;;4997874;28;20026;-73
2023/04/30 08:11:40;;;;;;;12.40;5.82;;;;;;;;;;5002314;28;20022;-70
2023/04/30 08:14:05;;;;;;;17.33;13.40;;;;;;;;;;4999949;28;20575;-70
2023/04/30 08:16:31;;;;;;;14.80;9.25;;;;;;;;;;4997475;28;20030;-73
2023/04/30 08:18:56;;;;;;;13.40;10.60;;;;;;;;;;5005141;28;20029;-70
2023/04/30 08:21:21;;;;;;;13.57;9.90;;;;;;;;;;5000864;28;20026;-72
2023/04/30 08:23:47;;;;;;;15.05;10.60;;;;;;;;;;5003834;28;20052;-70
2023/04/30 08:26:12;;;;;;;5.45;4.90;;;;;;;;;;5000291;28;20045;-70
2023/04/30 08:28:38;;;;;;;8.90;6.03;;;;;;;;;;5000444;28;20053;-73
2023/04/30 08:31:03;;;;;;;8.02;5.47;;;;;;;;;;5006912;28;20060;-70
2023/04/30 08:33:28;;;;;;;10.57;9.48;;;;;;;;;;5013199;28;20112;-71
2023/04/30 08:35:54;;;;;;;8.32;7.22;;;;;;;;;;5010192;28;20021;-73
2023/04/30 08:38:19;;;;;;;9.98;7.18;;;;;;;;;;5013796;28;20397;-70
2023/04/30 08:40:47;;;;;;;6.32;5.07;;;;;;;;;;5009092;28;20029;-70
2023/04/30 08:43:13;;;;;;;7.22;5.00;;;;;;;;;;5007130;28;20041;-73
2023/04/30 08:45:40;;;;;;;8.82;5.32;;;;;;;;;;5012462;28;20364;-72
2023/04/30 08:48:09;;;;;;;6.45;4.63;;;;;;;;;;5010043;28;20033;-71
2023/04/30 08:50:35;;;;;;;6.38;5.30;;;;;;;;;;5013018;28;20025;-72
2023/04/30 08:53:01;;;;;;;5.35;4.63;;;;;;;;;;5011103;28;20025;-72
2023/04/30 08:55:26;;;;;;;4.93;4.35;;;;;;;;;;5012450;28;20029;-71
2023/04/30 08:57:52;;;;;;;6.82;5.40;;;;;;;;;;5011297;28;20041;-71
2023/04/30 09:00:17;;;;;;;5.57;5.07;;;;;;;;;;5011678;28;20112;-71
2023/04/30 09:02:43;;;;;;;6.60;5.10;;;;;;;;;;5010469;28;20033;-71
2023/04/30 09:05:12;;;;;;;5.22;4.72;;;;;;;;;;5012129;28;20022;-71
2023/04/30 09:07:39;;;;;;;5.50;4.88;;;;;;;;;;5010907;28;20144;-71
2023/04/30 09:10:13;;;;;;;6.57;4.75;;;;;;;;;;5011020;28;20025;-74
2023/04/30 09:12:40;;;;;;;10.00;7.15;;;;;;;;;;5011179;28;20030;-70
2023/04/30 09:15:07;;;;;;;6.63;4.68;;;;;;;;;;5010768;28;20021;-70
2023/04/30 09:17:34;;;;;;;5.63;4.65;;;;;;;;;;5014296;28;20424;-71
2023/04/30 09:20:07;;;;;;;9.98;5.20;;;;;;;;;;5015002;28;20049;-71
2023/04/30 09:22:33;;;;;;;5.03;3.53;;;;;;;;;;5011853;28;20033;-72
2023/04/30 09:24:58;;;;;;;4.50;3.80;;;;;;;;;;5014430;28;20032;-72
2023/04/30 09:27:23;;;;;;;5.65;4.00;;;;;;;;;;5013014;28;20025;-73
2023/04/30 09:29:49;;;;;;;5.00;4.47;;;;;;;;;;5014049;28;20050;-73
2023/04/30 09:32:14;;;;;;;6.28;4.45;;;;;;;;;;5014367;28;20501;-72
2023/04/30 09:34:41;;;;;;;9.05;6.15;;;;;;;;;;5014460;28;20042;-73
2023/04/30 09:37:07;;;;;;;11.27;7.57;;;;;;;;;;5012918;28;20025;-75
2023/04/30 09:39:32;;;;;;;17.55;9.07;;;;;;;;;;5008808;28;20033;-75
2023/04/30 09:42:08;;;;;;;7.95;6.57;;;;;;;;;;5010558;28;20102;-75
2023/04/30 09:44:35;;;;;;;8.70;7.53;;;;;;;;;;5013507;28;20065;-72
2023/04/30 09:47:02;;;;;;;8.52;6.90;;;;;;;;;;5002933;28;20025;-72
2023/04/30 09:49:27;;;;;;;6.47;5.07;;;;;;;;;;5015733;28;20094;-72
2023/04/30 09:51:56;;;;;;;8.00;6.80;;;;;;;;;;5009937;28;20445;-72
2023/04/30 09:54:24;;;;;;;8.68;6.65;;;;;;;;;;5009819;28;20036;-72
2023/04/30 09:56:51;;;;;;;9.45;8.27;;;;;;;;;;5010935;28;20040;-71
2023/04/30 09:59:18;;;;;;;7.47;5.95;;;;;;;;;;5010974;28;20477;-72
2023/04/30 10:01:45;;;;;;;7.85;7.10;;;;;;;;;;5012217;28;20022;-72
2023/04/30 10:04:10;;;;;;;19.90;13.90;;;;;;;;;;5012218;28;20479;-73
2023/04/30 10:06:36;;;;;;;11.85;10.13;;;;;;;;;;5011243;28;20017;-74
2023/04/30 10:09:02;;;;;;;12.63;11.10;;;;;;;;;;5012514;28;20022;-72
2023/04/30 10:11:30;;;;;;;10.05;8.88;;;;;;;;;;5010745;28;20026;-74
2023/04/30 10:14:21;;;;;;;12.23;9.50;;;;;;;;;;5012275;28;20090;-73
2023/04/30 10:17:05;;;;;;;11.13;9.20;;;;;;;;;;5016225;28;20067;-72
2023/04/30 10:19:32;;;;;;;10.38;8.60;;;;;;;;;;5009912;28;20113;-72
2023/04/30 10:21:58;;;;;;;8.75;6.75;;;;;;;;;;5014964;28;20109;-72
2023/04/30 10:24:23;;;;;;;8.75;6.20;;;;;;;;;;5014807;28;20104;-72
2023/04/30 10:26:49;;;;;;;10.93;5.35;;;;;;;;;;5016447;28;20432;-74
2023/04/30 10:29:15;;;;;;;6.72;6.13;;;;;;;;;;5014198;28;20057;-72
2023/04/30 10:31:43;;;;;;;7.20;5.57;;;;;;;;;;5013656;28;20034;-72
2023/04/30 10:34:14;;;;;;;5.82;4.72;;;;;;;;;;5012715;28;20432;-73
2023/04/30 10:36:47;;;;;;;5.55;4.88;;;;;;;;;;5014755;28;20046;-74
2023/04/30 10:39:14;;;;;;;6.75;6.00;;;;;;;;;;5011518;28;20029;-72
2023/04/30 10:41:39;;;;;;;5.63;4.57;;;;;;;;;;5012035;28;20055;-72
2023/04/30 10:44:06;;;;;;;6.35;5.60;;;;;;;;;;5011286;28;20018;-74
2023/04/30 10:46:33;;;;;;;6.00;4.95;;;;;;;;;;5012200;28;20375;-72
2023/04/30 10:48:59;;;;;;;4.75;4.25;;;;;;;;;;5014063;28;20056;-72
2023/04/30 10:51:43;;;;;;;5.70;4.30;;;;;;;;;;5013263;28;20056;-72
2023/04/30 10:54:08;;;;;;;5.53;4.18;;;;;;;;;;5011655;28;20352;-73
2023/04/30 10:56:34;;;;;;;6.10;4.35;;;;;;;;;;5013957;28;20035;-75
2023/04/30 10:59:03;;;;;;;5.35;4.85;;;;;;;;;;5015361;28;20034;-74
2023/04/30 11:01:29;;;;;;;6.40;5.78;;;;;;;;;;5014339;28;20082;-72
2023/04/30 11:04:08;;;;;;;6.88;5.72;;;;;;;;;;5013143;28;20078;-73
2023/04/30 11:06:54;;;;;;;7.75;6.80;;;;;;;;;;5011419;28;20120;-71
2023/04/30 11:09:28;;;;;;;6.22;5.63;;;;;;;;;;5003997;28;20097;-72
2023/04/30 11:12:01;;;;;;;6.55;5.85;;;;;;;;;;5000631;28;20025;-72
2023/04/30 11:14:30;;;;;;;7.38;6.45;;;;;;;;;;5002542;28;20772;-73
2023/04/30 11:16:55;;;;;;;6.35;4.53;;;;;;;;;;5010198;28;20065;-70
2023/04/30 11:19:21;;;;;;;8.43;7.57;;;;;;;;;;5014920;28;20440;-72
2023/04/30 11:22:10;;;;;;;55.17;50.33;;;;;;;;;;5013387;28;20081;-70
2023/04/30 11:24:54;;;;;;;29.85;27.70;;;;;;;;;;5012372;28;20069;-71
2023/04/30 11:27:21;;;;;;;11.63;9.98;;;;;;;;;;5012050;28;20029;-72
2023/04/30 11:29:48;;;;;;;6.30;5.70;;;;;;;;;;5015231;28;20414;-74
2023/04/30 11:32:13;;;;;;;6.70;5.32;;;;;;;;;;5013226;28;20033;-72
2023/04/30 11:34:39;;;;;;;7.25;5.40;;;;;;;;;;5010455;28;20022;-72
2023/04/30 11:37:05;;;;;;;4.95;4.45;;;;;;;;;;5011649;28;20025;-72
2023/04/30 11:39:32;;;;;;;4.80;4.32;;;;;;;;;;5013083;28;20068;-72
2023/04/30 11:41:57;;;;;;;4.40;3.80;;;;;;;;;;5012955;28;20078;-71
2023/04/30 11:44:26;;;;;;;5.45;4.18;;;;;;;;;;5011433;28;20049;-72
2023/04/30 11:46:52;;;;;;;4.53;3.22;;;;;;;;;;5012029;28;20022;-72
2023/04/30 11:49:19;;;;;;;3.95;3.55;;;;;;;;;;5009820;28;20052;-71
2023/04/30 11:51:47;;;;;;;4.10;3.47;;;;;;;;;;5012121;28;20064;-71
2023/04/30 11:54:13;;;;;;;19.50;13.50;;;;;;;;;;5010626;28;20080;-71
2023/04/30 11:56:38;;;;;;;27.17;15.15;;;;;;;;;;5011908;28;20452;-73
2023/04/30 11:59:09;;;;;;;17.25;8.63;;;;;;;;;;5009861;28;20030;-74
2023/04/30 12:01:35;;;;;;;8.15;5.47;;;;;;;;;;5012343;28;20615;-74
2023/04/30 12:04:02;;;;;;;10.63;5.97;;;;;;;;;;5013386;28;20030;-75
2023/04/30 12:06:28;;;;;;;20.77;14.63;;;;;;;;;;5012283;28;20091;-75
2023/04/30 12:08:54;;;;;;;6.82;4.47;;;;;;;;;;5012138;28;20350;-74
2023/04/30 12:11:21;;;;;;;15.00;12.00;;;;;;;;;;5010002;28;20068;-74
2023/04/30 12:14:11;;;;;;;8.23;6.78;;;;;;;;;;5012699;28;20086;-73
2023/04/30 12:16:48;;;;;;;58.88;49.83;;;;;;;;;;5012002;28;20498;-74
2023/04/30 12:19:14;;;;;;;95.80;81.10;;;;;;;;;;5008804;28;20116;-74
2023/04/30 12:21:40;;;;;;;33.35;29.30;;;;;;;;;;5013817;28;20102;-75
2023/04/30 12:24:07;;;;;;;17.25;15.02;;;;;;;;;;5012355;28;20033;-73
2023/04/30 12:26:36;;;;;;;73.63;63.17;;;;;;;;;;5012609;28;20048;-73
2023/04/30 12:29:07;;;;;;;50.30;42.15;;;;;;;;;;5010299;28;20057;-72
2023/04/30 12:31:32;;;;;;;56.40;50.53;;;;;;;;;;5008056;28;20132;-72
2023/04/30 12:34:02;;;;;;;31.75;28.75;;;;;;;;;;5012655;28;20132;-74
2023/04/30 12:36:28;;;;;;;9.65;8.75;;;;;;;;;;5008857;28;20105;-72
2023/04/30 12:39:01;;;;;;;6.05;5.10;;;;;;;;;;5012534;28;20116;-72
2023/04/30 12:41:28;;;;;;;7.78;5.40;;;;;;;;;;5009977;28;20090;-75
2023/04/30 12:44:12;;;;;;;4.20;3.80;;;;;;;;;;5010465;28;20033;-72
2023/04/30 12:46:38;;;;;;;6.68;4.80;;;;;;;;;;5011863;28;20503;-72
2023/04/30 12:49:03;;;;;;;5.38;4.45;;;;;;;;;;5009669;28;20152;-72
2023/04/30 12:51:29;;;;;;;5.40;4.90;;;;;;;;;;5010756;28;20049;-72
2023/04/30 12:53:54;;;;;;;6.10;4.10;;;;;;;;;;5010755;28;20068;-72
2023/04/30 12:56:21;;;;;;;5.10;4.60;;;;;;;;;;5003911;28;20045;-72
2023/04/30 12:58:48;;;;;;;6.55;4.45;;;;;;;;;;5008003;28;20614;-71
2023/04/30 13:01:16;;;;;;;5.38;3.85;;;;;;;;;;5010609;28;20032;-74
2023/04/30 13:03:41;;;;;;;10.15;6.75;;;;;;;;;;5011256;28;20093;-72
2023/04/30 13:06:07;;;;;;;4.03;3.70;;;;;;;;;;5010145;28;20041;-72
2023/04/30 13:08:32;;;;;;;4.95;4.18;;;;;;;;;;5010315;28;20098;-72
2023/04/30 13:10:57;;;;;;;5.35;4.28;;;;;;;;;;5010169;28;20040;-72
2023/04/30 13:13:23;;;;;;;4.55;3.70;;;;;;;;;;5012818;28;20502;-72
2023/04/30 13:15:48;;;;;;;8.05;6.97;;;;;;;;;;5003713;28;20436;-74
2023/04/30 13:18:16;;;;;;;8.40;5.25;;;;;;;;;;5007894;28;20392;-71
2023/04/30 13:20:42;;;;;;;4.22;3.67;;;;;;;;;;5009573;28;20045;-72
2023/04/30 13:23:08;;;;;;;6.28;3.70;;;;;;;;;;5011562;28;20032;-72
2023/04/30 13:25:34;;;;;;;5.47;3.63;;;;;;;;;;5008957;28;20018;-72
2023/04/30 13:27:59;;;;;;;7.85;3.55;;;;;;;;;;5011344;28;20028;-72
2023/04/30 13:30:24;;;;;;;4.35;3.30;;;;;;;;;;5011215;28;20033;-74
2023/04/30 13:32:51;;;;;;;4.45;4.03;;;;;;;;;;5010543;28;20037;-73
2023/04/30 13:35:16;;;;;;;5.68;4.75;;;;;;;;;;5011323;28;20059;-72
2023/04/30 13:37:42;;;;;;;3.58;3.17;;;;;;;;;;5007361;28;20029;-72
2023/04/30 13:40:07;;;;;;;3.67;3.38;;;;;;;;;;5008414;28;20060;-72
2023/04/30 13:42:33;;;;;;;5.60;3.47;;;;;;;;;;5008147;28;20339;-71
2023/04/30 13:44:58;;;;;;;9.43;5.35;;;;;;;;;;5006871;28;20380;-71
2023/04/30 13:47:23;;;;;;;9.13;7.03;;;;;;;;;;5009323;28;20018;-75
2023/04/30 13:49:49;;;;;;;7.78;6.28;;;;;;;;;;5010468;28;20124;-73
2023/04/30 13:52:14;;;;;;;4.25;3.90;;;;;;;;;;5010947;28;20018;-71
2023/04/30 13:54:40;;;;;;;10.80;5.40;;;;;;;;;;5008131;28;20476;-74
2023/04/30 13:57:06;;;;;;;8.15;5.55;;;;;;;;;;5009279;28;20030;-71
2023/04/30 13:59:31;;;;;;;17.23;9.77;;;;;;;;;;5010252;28;20030;-72
2023/04/30 14:01:57;;;;;;;11.93;8.02;;;;;;;;;;5002499;28;20037;-71
2023/04/30 14:04:22;;;;;;;9.05;5.95;;;;;;;;;;4998115;28;20029;-72
2023/04/30 14:06:48;;;;;;;6.32;4.60;;;;;;;;;;4997504;28;21257;-72
2023/04/30 14:09:13;;;;;;;6.28;5.40;;;;;;;;;;4999609;28;20079;-72
2023/04/30 14:11:39;;;;;;;5.25;3.85;;;;;;;;;;5000299;28;20025;-73
2023/04/30 14:14:04;;;;;;;8.45;6.05;;;;;;;;;;5000440;28;20114;-72
2023/04/30 14:16:30;;;;;;;7.70;5.82;;;;;;;;;;4999447;28;20030;-73
2023/04/30 14:18:56;;;;;;;8.75;7.93;;;;;;;;;;5000698;28;20042;-72
2023/04/30 14:21:21;;;;;;;10.13;8.13;;;;;;;;;;4999576;28;20025;-72
2023/04/30 14:23:46;;;;;;;13.40;9.35;;;;;;;;;;5000408;28;20018;-73